Time;durP1;ratioP1;P1;durP2;ratioP2;P2;SDS_P1;SDS_P2;PMS_P1;PMS_P2;Temp;Humidity;BMP_temperature;BMP_pressure;BME280_temperature;BME280_humidity;BME280_pressure;Samples;Min_cycle;Max_cycle;Signal;HPM_P1;HPM_P2
2022/06/07 00:00:18;;;;;;;6.13;3.97;;;15.00;99.90;;;;;;6247109;28;20531;-59
2022/06/07 00:03:21;;;;;;;9.50;5.32;;;15.10;99.90;;;;;;6239854;28;20144;-59
2022/06/07 00:06:24;;;;;;;9.87;7.20;;;15.20;99.90;;;;;;6231813;28;20048;-59
2022/06/07 00:09:27;;;;;;;7.47;5.30;;;15.10;99.90;;;;;;6228417;28;20054;-60
2022/06/07 00:12:29;;;;;;;7.15;4.88;;;15.00;99.90;;;;;;6235137;28;20513;-59
2022/06/07 00:15:31;;;;;;;9.43;4.93;;;14.90;99.90;;;;;;6238356;28;20053;-59
2022/06/07 00:18:33;;;;;;;9.80;4.57;;;14.90;99.90;;;;;;6225595;28;20044;-59
2022/06/07 00:21:36;;;;;;;10.05;5.57;;;14.90;99.90;;;;;;6240629;28;20064;-59
2022/06/07 00:24:38;;;;;;;12.30;5.70;;;14.90;99.90;;;;;;6246692;28;20438;-59
2022/06/07 00:27:40;;;;;;;9.63;4.90;;;14.90;99.90;;;;;;6242576;28;20050;-59
2022/06/07 00:30:43;;;;;;;5.82;4.15;;;14.90;99.90;;;;;;6241514;28;20072;-59
2022/06/07 00:33:45;;;;;;;9.50;5.40;;;15.00;99.90;;;;;;6241652;28;20057;-59
2022/06/07 00:36:48;;;;;;;6.03;3.72;;;15.00;99.90;;;;;;6244022;28;20053;-59
2022/06/07 00:39:50;;;;;;;8.55;4.72;;;15.00;99.90;;;;;;6239712;28;20057;-58
2022/06/07 00:42:52;;;;;;;8.82;5.65;;;15.00;99.90;;;;;;6226008;28;20050;-59
2022/06/07 00:45:53;;;;;;;5.30;3.80;;;15.00;99.90;;;;;;6246151;28;20045;-59
2022/06/07 00:48:56;;;;;;;5.65;4.35;;;15.10;99.90;;;;;;6246316;28;20057;-58
2022/06/07 00:51:59;;;;;;;6.50;4.35;;;15.00;99.90;;;;;;6240838;28;20057;-59
2022/06/07 00:55:02;;;;;;;9.00;5.07;;;15.00;99.90;;;;;;6241232;28;20056;-59
2022/06/07 00:58:04;;;;;;;9.05;8.13;;;14.90;99.90;;;;;;6248173;28;20084;-59
2022/06/07 01:01:06;;;;;;;12.27;6.22;;;14.80;99.90;;;;;;6244847;28;20057;-59
2022/06/07 01:04:08;;;;;;;9.40;6.18;;;15.00;99.90;;;;;;6244661;28;20054;-59
2022/06/07 01:10:46;;;;;;;11.13;7.18;;;15.10;99.90;;;;;;6234727;28;20053;-58
2022/06/07 01:13:48;;;;;;;11.65;7.55;;;15.00;99.90;;;;;;6240980;28;20053;-58
2022/06/07 01:16:50;;;;;;;13.60;9.02;;;14.90;99.90;;;;;;6246752;28;20708;-58
2022/06/07 01:19:52;;;;;;;11.90;6.38;;;14.90;99.90;;;;;;6245709;28;20045;-58
2022/06/07 01:22:55;;;;;;;11.20;6.75;;;15.00;99.90;;;;;;6245573;28;20050;-59
2022/06/07 01:26:01;;;;;;;8.20;7.00;;;15.10;99.90;;;;;;6241032;28;20042;-59
2022/06/07 01:29:03;;;;;;;11.65;7.88;;;15.20;99.90;;;;;;6222777;28;20402;-59
2022/06/07 01:32:07;;;;;;;9.17;7.50;;;15.20;99.90;;;;;;6233932;28;20080;-59
2022/06/07 01:35:09;;;;;;;13.05;9.00;;;15.20;99.90;;;;;;6245643;28;20049;-58
2022/06/07 01:38:12;;;;;;;13.32;10.25;;;15.20;99.90;;;;;;6247306;28;20042;-59
2022/06/07 01:44:39;;;;;;;11.73;8.32;;;15.10;99.90;;;;;;6242822;28;20088;-59
2022/06/07 01:47:41;;;;;;;11.43;7.53;;;15.00;99.90;;;;;;6245679;28;20053;-59
2022/06/07 01:50:43;;;;;;;8.82;6.85;;;15.00;99.90;;;;;;6235637;28;20048;-59
2022/06/07 01:53:46;;;;;;;11.27;8.93;;;15.00;99.90;;;;;;6242220;28;20053;-59
2022/06/07 01:56:49;;;;;;;9.60;7.05;;;14.90;99.90;;;;;;6245858;28;20406;-59
2022/06/07 01:59:51;;;;;;;10.93;8.52;;;15.00;99.90;;;;;;6240817;28;20061;-59
2022/06/07 02:02:53;;;;;;;10.98;7.68;;;14.90;99.90;;;;;;6242383;28;20056;-59
2022/06/07 02:05:56;;;;;;;11.50;8.27;;;14.80;99.90;;;;;;6240596;28;20045;-59
2022/06/07 02:09:00;;;;;;;11.32;8.38;;;14.90;99.90;;;;;;6238822;28;20391;-59
2022/06/07 02:12:02;;;;;;;14.20;8.90;;;14.90;99.90;;;;;;6242980;28;20053;-59
2022/06/07 02:15:05;;;;;;;11.00;7.82;;;15.00;99.90;;;;;;6246878;28;20049;-59
2022/06/07 02:18:08;;;;;;;11.93;9.05;;;15.10;99.90;;;;;;6231417;28;20046;-59
2022/06/07 02:21:11;;;;;;;10.90;6.68;;;15.00;99.90;;;;;;6242037;28;20517;-59
2022/06/07 02:24:14;;;;;;;8.00;6.00;;;15.00;99.90;;;;;;6247074;28;20491;-59
2022/06/07 02:27:20;;;;;;;9.65;7.90;;;15.10;99.90;;;;;;6247121;28;20072;-59
2022/06/07 02:30:22;;;;;;;10.02;7.00;;;15.20;99.90;;;;;;6244278;28;20056;-59
2022/06/07 02:33:25;;;;;;;6.63;4.32;;;15.30;99.90;;;;;;6242441;28;20046;-59
2022/06/07 02:36:28;;;;;;;9.25;7.10;;;15.20;99.90;;;;;;6232210;28;20064;-59
2022/06/07 02:39:33;;;;;;;8.63;7.15;;;15.30;99.90;;;;;;6245893;28;20057;-59
2022/06/07 02:42:35;;;;;;;8.05;5.45;;;15.30;99.90;;;;;;6245211;28;20057;-59
2022/06/07 02:45:37;;;;;;;10.60;5.85;;;15.30;99.90;;;;;;6243705;28;20061;-59
2022/06/07 02:48:39;;;;;;;7.25;5.03;;;15.40;99.90;;;;;;6247040;28;20042;-59
2022/06/07 02:51:40;;;;;;;10.73;6.20;;;15.50;99.90;;;;;;6240997;28;20434;-60
2022/06/07 02:54:44;;;;;;;6.93;4.63;;;15.60;99.90;;;;;;6245951;28;20486;-59
2022/06/07 02:57:46;;;;;;;8.80;5.32;;;15.70;99.90;;;;;;6245654;28;20494;-59
2022/06/07 03:00:48;;;;;;;6.28;4.80;;;15.70;99.90;;;;;;6245765;28;20478;-59
2022/06/07 03:03:50;;;;;;;9.60;6.68;;;15.80;99.90;;;;;;6222158;28;20498;-59
2022/06/07 03:06:51;;;;;;;7.22;5.32;;;15.80;99.90;;;;;;6232723;28;20045;-59
2022/06/07 03:09:55;;;;;;;7.70;6.32;;;15.70;99.90;;;;;;6237789;28;20064;-59
2022/06/07 03:12:56;;;;;;;9.30;6.13;;;15.70;99.90;;;;;;6229913;28;20136;-59
2022/06/07 03:15:58;;;;;;;6.28;5.28;;;15.80;99.90;;;;;;6245374;28;20049;-60
2022/06/07 03:19:01;;;;;;;6.93;6.18;;;15.70;99.90;;;;;;6244135;28;20058;-59
2022/06/07 03:22:03;;;;;;;10.50;8.05;;;15.60;99.90;;;;;;6244059;28;20085;-59
2022/06/07 03:25:08;;;;;;;12.03;7.17;;;15.60;99.90;;;;;;6237548;28;20050;-59
2022/06/07 03:28:10;;;;;;;9.13;6.28;;;15.50;99.90;;;;;;6224200;28;20060;-59
2022/06/07 03:31:15;;;;;;;9.13;6.28;;;15.50;99.90;;;;;;6244722;28;20064;-59
2022/06/07 03:34:17;;;;;;;7.13;5.45;;;15.40;99.90;;;;;;6242981;28;20049;-59
2022/06/07 03:37:18;;;;;;;9.85;7.13;;;15.40;99.90;;;;;;6245760;28;20050;-59
2022/06/07 03:43:38;;;;;;;6.38;5.20;;;15.40;99.90;;;;;;6235948;28;20508;-59
2022/06/07 03:46:43;;;;;;;9.25;7.22;;;15.50;99.90;;;;;;6238977;28;20486;-59
2022/06/07 03:49:46;;;;;;;12.13;9.85;;;15.50;99.90;;;;;;6240505;28;20046;-58
2022/06/07 03:52:48;;;;;;;12.18;8.98;;;15.50;99.90;;;;;;6248693;28;20053;-59
2022/06/07 03:55:53;;;;;;;8.88;6.25;;;15.50;99.90;;;;;;6250613;28;20482;-59
2022/06/07 03:58:55;;;;;;;12.98;9.48;;;15.40;99.90;;;;;;6245166;28;20053;-59
2022/06/07 04:01:57;;;;;;;10.73;8.25;;;15.30;99.90;;;;;;6249417;28;20050;-59
2022/06/07 04:04:59;;;;;;;7.78;6.38;;;15.30;99.90;;;;;;6246919;28;20487;-59
2022/06/07 04:08:13;;;;;;;9.48;6.95;;;15.40;99.90;;;;;;6236265;28;20053;-59
2022/06/07 04:11:18;;;;;;;;;;;15.50;99.90;;;;;;6249898;28;20050;-59
2022/06/07 04:14:20;;;;;;;10.27;8.05;;;15.60;99.90;;;;;;6250559;28;19921;-59
2022/06/07 04:17:22;;;;;;;6.65;5.25;;;15.50;99.90;;;;;;6235965;28;20132;-60
2022/06/07 04:20:23;;;;;;;10.10;6.68;;;15.50;99.90;;;;;;6249032;28;20054;-59
2022/06/07 04:23:25;;;;;;;8.85;7.43;;;15.60;99.90;;;;;;6246366;28;20057;-59
2022/06/07 04:26:29;;;;;;;7.55;5.25;;;15.70;99.90;;;;;;6246185;28;20065;-60
2022/06/07 04:29:30;;;;;;;10.50;7.28;;;15.60;99.90;;;;;;6248183;28;20061;-59
2022/06/07 04:32:33;;;;;;;9.60;6.75;;;15.60;99.90;;;;;;6243964;28;20053;-60
2022/06/07 04:35:35;;;;;;;10.07;8.87;;;15.50;99.90;;;;;;6239941;28;20410;-59
2022/06/07 04:38:37;;;;;;;11.95;8.00;;;15.50;99.90;;;;;;6242950;28;20541;-60
2022/06/07 04:41:41;;;;;;;9.73;7.25;;;15.40;99.90;;;;;;6237491;28;20462;-59
2022/06/07 04:44:43;;;;;;;9.27;7.00;;;15.40;99.90;;;;;;6248356;28;20056;-59
2022/06/07 04:47:47;;;;;;;10.95;8.90;;;15.40;99.90;;;;;;6246253;28;20505;-59
2022/06/07 04:50:48;;;;;;;;;;;15.50;99.90;;;;;;6233556;28;20038;-59
2022/06/07 04:53:51;;;;;;;8.55;6.78;;;15.60;99.90;;;;;;6242401;28;19925;-59
2022/06/07 04:56:55;;;;;;;8.90;6.80;;;15.70;99.90;;;;;;6246010;28;20052;-60
2022/06/07 04:59:57;;;;;;;;;;;15.70;99.90;;;;;;6247992;28;20570;-59
2022/06/07 05:02:59;;;;;;;6.35;4.40;;;15.80;99.90;;;;;;6248426;28;19928;-59
2022/06/07 05:06:01;;;;;;;10.20;8.00;;;15.80;99.90;;;;;;6243754;28;20078;-60
2022/06/07 05:09:06;;;;;;;9.32;7.10;;;15.90;99.90;;;;;;6246517;28;20057;-59
2022/06/07 05:12:10;;;;;;;6.40;4.25;;;16.10;99.90;;;;;;6248942;28;20053;-59
2022/06/07 05:15:12;;;;;;;8.82;7.55;;;16.20;99.90;;;;;;6247539;28;20060;-59
2022/06/07 05:18:14;;;;;;;9.27;7.75;;;16.20;99.90;;;;;;6247235;28;20052;-59
2022/06/07 05:21:16;;;;;;;9.50;6.82;;;16.20;99.90;;;;;;6244114;28;20065;-60
2022/06/07 05:24:18;;;;;;;8.95;6.57;;;16.10;99.90;;;;;;6242572;28;20042;-60
2022/06/07 05:27:24;;;;;;;8.77;4.75;;;16.20;99.90;;;;;;6247342;28;20057;-60
2022/06/07 05:30:26;;;;;;;9.35;6.97;;;16.40;99.90;;;;;;6227980;28;20049;-59
2022/06/07 05:33:28;;;;;;;8.85;6.55;;;16.30;99.90;;;;;;6245378;28;20057;-60
2022/06/07 05:36:30;;;;;;;7.88;7.07;;;16.10;99.90;;;;;;6231914;28;20053;-60
2022/06/07 05:39:32;;;;;;;7.38;5.40;;;15.80;99.90;;;;;;6232060;28;20061;-60
2022/06/07 05:42:35;;;;;;;10.93;8.45;;;15.70;99.90;;;;;;6240647;28;20064;-60
2022/06/07 05:45:38;;;;;;;15.20;10.38;;;15.60;99.90;;;;;;6241402;28;20053;-59
2022/06/07 05:48:40;;;;;;;7.87;6.50;;;15.60;99.90;;;;;;6232797;28;20057;-59
2022/06/07 05:51:42;;;;;;;11.68;7.65;;;15.60;99.90;;;;;;6236672;28;20499;-59
2022/06/07 05:54:44;;;;;;;9.85;7.38;;;15.50;99.90;;;;;;6245641;28;20075;-59
2022/06/07 05:57:50;;;;;;;9.13;6.72;;;15.60;99.90;;;;;;6237971;28;20042;-59
2022/06/07 06:00:52;;;;;;;8.30;7.00;;;15.50;99.90;;;;;;6240167;28;20196;-59
2022/06/07 06:03:55;;;;;;;10.73;7.43;;;15.40;99.90;;;;;;6232410;28;20038;-59
2022/06/07 06:06:58;;;;;;;10.00;8.60;;;15.30;99.90;;;;;;6226933;28;20521;-59
2022/06/07 06:13:21;;;;;;;9.52;7.35;;;15.30;99.90;;;;;;6240844;28;20106;-59
2022/06/07 06:16:23;;;;;;;7.88;7.00;;;15.30;99.90;;;;;;6225902;28;20054;-59
2022/06/07 06:19:25;;;;;;;5.83;5.23;;;15.30;99.90;;;;;;6220801;28;20061;-60
2022/06/07 06:22:27;;;;;;;5.47;4.28;;;15.30;99.90;;;;;;6244895;28;20344;-59
2022/06/07 06:25:29;;;;;;;6.82;4.57;;;15.30;99.90;;;;;;6245326;28;20052;-59
2022/06/07 06:28:33;;;;;;;4.55;3.53;;;15.30;99.90;;;;;;6238055;28;20041;-60
2022/06/07 06:31:35;;;;;;;7.70;4.00;;;15.40;99.90;;;;;;6241537;28;20068;-60
2022/06/07 06:34:37;;;;;;;6.70;3.53;;;15.40;99.90;;;;;;6244868;28;20064;-58
2022/06/07 06:37:39;;;;;;;5.55;3.33;;;15.40;99.90;;;;;;6244510;28;20497;-60
2022/06/07 06:40:41;;;;;;;5.43;3.50;;;15.50;99.90;;;;;;6229699;28;20045;-60
2022/06/07 06:43:45;;;;;;;3.20;2.83;;;15.70;99.90;;;;;;6239184;28;20045;-59
2022/06/07 06:46:48;;;;;;;4.50;2.95;;;15.80;99.90;;;;;;6245287;28;20498;-59
2022/06/07 06:49:50;;;;;;;4.70;2.97;;;15.80;99.90;;;;;;6245155;28;20052;-60
2022/06/07 06:52:52;;;;;;;5.38;3.22;;;15.80;99.90;;;;;;6244614;28;20084;-58
2022/06/07 06:55:56;;;;;;;4.20;2.97;;;15.80;99.90;;;;;;6243250;28;20041;-59
2022/06/07 06:58:59;;;;;;;;;;;15.70;99.90;;;;;;6242603;28;20491;-60
2022/06/07 07:02:01;;;;;;;5.10;3.35;;;15.60;99.90;;;;;;6229928;28;20427;-60
2022/06/07 07:05:03;;;;;;;4.82;3.22;;;15.60;99.90;;;;;;6236355;28;20041;-60
2022/06/07 07:08:06;;;;;;;5.28;3.15;;;15.50;99.90;;;;;;6245399;28;20053;-60
2022/06/07 07:11:11;;;;;;;6.35;3.67;;;15.60;99.90;;;;;;6247074;28;20049;-59
2022/06/07 07:14:15;;;;;;;5.60;3.35;;;15.60;99.90;;;;;;6245129;28;20486;-59
2022/06/07 07:17:16;;;;;;;5.38;3.20;;;15.70;99.90;;;;;;6237850;28;20065;-59
2022/06/07 07:20:19;;;;;;;9.15;5.75;;;15.80;99.90;;;;;;6224010;28;20038;-59
2022/06/07 07:23:22;;;;;;;8.50;5.93;;;15.80;99.90;;;;;;6248728;28;20049;-59
2022/06/07 07:26:25;;;;;;;10.05;5.30;;;15.60;99.90;;;;;;6244279;28;20053;-60
2022/06/07 07:29:29;;;;;;;8.90;5.22;;;15.50;99.90;;;;;;6225763;28;20057;-58
2022/06/07 07:32:31;;;;;;;5.60;3.22;;;15.50;99.90;;;;;;6225296;28;20061;-60
2022/06/07 07:35:34;;;;;;;7.63;3.22;;;15.60;99.90;;;;;;6246037;28;20053;-58
2022/06/07 07:38:37;;;;;;;8.75;4.05;;;15.50;99.90;;;;;;6251370;28;20212;-58
2022/06/07 07:41:40;;;;;;;7.10;3.72;;;15.60;99.90;;;;;;6250102;28;20050;-60
2022/06/07 07:44:43;;;;;;;5.47;2.80;;;15.50;99.90;;;;;;6250013;28;20049;-60
2022/06/07 07:47:45;;;;;;;11.40;3.95;;;15.30;99.90;;;;;;6250876;28;20057;-60
2022/06/07 07:50:47;;;;;;;6.20;3.03;;;15.40;99.90;;;;;;6243958;28;20072;-59
2022/06/07 07:53:49;;;;;;;7.93;3.00;;;15.40;99.90;;;;;;6246524;28;20057;-59
2022/06/07 07:56:52;;;;;;;5.10;2.42;;;15.50;99.90;;;;;;6242393;28;20057;-59
2022/06/07 07:59:55;;;;;;;7.20;2.30;;;15.50;99.90;;;;;;6246716;28;20049;-59
2022/06/07 08:02:58;;;;;;;6.15;2.20;;;15.40;99.90;;;;;;6224868;28;20041;-60
2022/06/07 08:06:00;;;;;;;5.80;1.73;;;15.50;99.90;;;;;;6226315;28;20041;-59
2022/06/07 08:09:04;;;;;;;6.15;1.95;;;15.60;99.90;;;;;;6239185;28;20050;-58
2022/06/07 08:12:08;;;;;;;3.33;1.70;;;15.70;99.90;;;;;;6249173;28;20045;-58
2022/06/07 08:15:13;;;;;;;5.32;2.03;;;15.70;99.90;;;;;;6232683;28;20433;-59
2022/06/07 08:18:15;;;;;;;5.35;1.80;;;15.70;99.90;;;;;;6225936;28;20053;-59
2022/06/07 08:21:20;;;;;;;3.13;1.55;;;15.80;99.90;;;;;;6229116;28;20049;-59
2022/06/07 08:24:22;;;;;;;8.07;2.00;;;15.80;99.90;;;;;;6247971;28;20466;-59
2022/06/07 08:27:24;;;;;;;5.13;1.70;;;15.80;99.90;;;;;;6225530;28;20053;-59
2022/06/07 08:30:27;;;;;;;3.97;1.80;;;15.90;99.90;;;;;;6225922;28;20060;-59
2022/06/07 08:40:12;;;;;;;4.35;1.70;;;16.30;99.90;;;;;;6224502;28;20046;-59
2022/06/07 08:43:18;;;;;;;3.05;1.90;;;16.30;99.90;;;;;;6242167;28;20053;-59
2022/06/07 08:46:28;;;;;;;6.03;2.17;;;16.20;99.90;;;;;;6239604;28;20073;-59
2022/06/07 08:49:30;;;;;;;3.50;2.20;;;16.10;99.90;;;;;;6225839;28;20050;-58
2022/06/07 08:52:35;;;;;;;3.60;1.83;;;16.10;99.90;;;;;;6238088;28;20050;-59
2022/06/07 08:55:43;;;;;;;3.70;2.28;;;16.20;99.90;;;;;;6243733;28;20041;-59
2022/06/07 08:58:49;;;;;;;3.95;2.08;;;16.30;99.90;;;;;;6227766;28;20054;-59
2022/06/07 09:02:03;;;;;;;6.28;1.98;;;16.30;99.90;;;;;;6225301;28;20045;-59
2022/06/07 09:05:06;;;;;;;3.65;1.98;;;16.40;99.90;;;;;;6228016;28;20054;-58
2022/06/07 09:08:10;;;;;;;4.68;1.98;;;16.50;99.90;;;;;;6224699;28;20042;-61
2022/06/07 09:14:43;;;;;;;4.50;1.65;;;16.70;99.90;;;;;;6224500;28;20058;-58
2022/06/07 09:17:51;;;;;;;3.03;1.30;;;16.80;99.90;;;;;;6244889;28;20052;-58
2022/06/07 09:20:58;;;;;;;2.13;1.23;;;16.90;99.90;;;;;;6244715;28;20045;-58
2022/06/07 09:24:00;;;;;;;4.82;1.58;;;17.00;99.90;;;;;;6248264;28;20335;-58
2022/06/07 09:27:15;;;;;;;3.33;1.70;;;16.90;99.90;;;;;;6248864;28;20049;-60
2022/06/07 09:30:25;;;;;;;2.95;1.77;;;16.90;99.90;;;;;;6247794;28;20056;-58
2022/06/07 09:33:31;;;;;;;3.40;2.03;;;16.90;99.90;;;;;;6237475;28;20085;-58
2022/06/07 09:36:36;;;;;;;3.20;1.80;;;16.80;99.90;;;;;;6231224;28;20509;-58
2022/06/07 09:39:41;;;;;;;3.33;2.05;;;17.00;99.90;;;;;;6235121;28;20418;-58
2022/06/07 09:42:42;;;;;;;4.60;2.22;;;17.10;99.90;;;;;;6236816;28;20498;-58
2022/06/07 09:45:54;;;;;;;6.38;2.50;;;17.20;99.90;;;;;;6247064;28;20060;-58
2022/06/07 09:48:58;;;;;;;5.70;2.00;;;17.20;99.90;;;;;;6234023;28;20049;-59
2022/06/07 09:52:13;;;;;;;4.20;1.85;;;17.30;99.90;;;;;;6245221;28;20045;-59
2022/06/07 09:55:23;;;;;;;3.22;1.60;;;17.30;99.90;;;;;;6245957;28;20045;-60
2022/06/07 09:58:44;;;;;;;3.75;1.55;;;17.30;99.90;;;;;;6222007;28;20046;-59
2022/06/07 10:01:55;;;;;;;5.85;1.60;;;17.60;99.90;;;;;;6227314;28;20048;-59
2022/06/07 10:05:06;;;;;;;8.27;2.00;;;17.70;99.90;;;;;;6242662;28;20486;-59
2022/06/07 10:08:29;;;;;;;5.90;1.90;;;17.70;99.90;;;;;;6239362;28;20049;-59
2022/06/07 10:11:38;;;;;;;8.95;1.98;;;17.70;99.90;;;;;;6243446;28;20049;-59
2022/06/07 10:14:49;;;;;;;6.55;2.20;;;17.70;99.90;;;;;;6243470;28;20057;-59
2022/06/07 10:18:03;;;;;;;6.93;1.80;;;17.70;99.90;;;;;;6245382;28;20056;-59
2022/06/07 10:21:24;;;;;;;6.93;2.05;;;17.70;99.90;;;;;;6242959;28;20046;-59
2022/06/07 10:24:38;;;;;;;5.03;1.80;;;17.80;99.90;;;;;;6239169;28;20060;-59
2022/06/07 10:27:51;;;;;;;9.35;2.17;;;17.90;99.90;;;;;;6244586;28;20045;-59
2022/06/07 10:30:59;;;;;;;7.72;1.90;;;17.90;99.90;;;;;;6238934;28;20056;-59
2022/06/07 10:34:05;;;;;;;4.28;1.90;;;18.00;99.90;;;;;;6242571;28;20057;-60
2022/06/07 10:37:21;;;;;;;5.40;1.95;;;18.10;99.90;;;;;;6236311;28;20038;-60
2022/06/07 10:40:30;;;;;;;5.00;1.20;;;18.00;99.90;;;;;;6220209;28;20056;-60
2022/06/07 10:43:49;;;;;;;4.78;1.40;;;18.00;99.90;;;;;;6242741;28;20053;-60
2022/06/07 10:46:51;;;;;;;4.18;1.60;;;17.90;99.90;;;;;;6221173;28;20479;-60
2022/06/07 10:49:58;;;;;;;4.45;1.40;;;17.70;99.90;;;;;;6230319;28;20046;-60
2022/06/07 10:53:07;;;;;;;6.10;1.27;;;17.70;99.90;;;;;;6230571;28;20045;-60
2022/06/07 10:56:17;;;;;;;4.00;1.35;;;17.70;99.90;;;;;;6240601;28;20055;-60
2022/06/07 10:59:22;;;;;;;6.75;1.40;;;17.80;99.90;;;;;;6234988;28;20065;-60
2022/06/07 11:02:33;;;;;;;3.95;1.23;;;17.70;99.90;;;;;;6243408;28;20482;-59
2022/06/07 11:09:22;;;;;;;6.57;1.63;;;17.70;99.90;;;;;;6223083;28;20448;-60
2022/06/07 11:12:27;;;;;;;4.93;1.23;;;17.70;99.90;;;;;;6237592;28;20053;-60
2022/06/07 11:15:37;;;;;;;6.03;1.30;;;17.70;99.90;;;;;;6237246;28;20056;-60
2022/06/07 11:18:42;;;;;;;6.75;1.25;;;17.70;99.90;;;;;;6244347;28;20038;-60
2022/06/07 11:21:49;;;;;;;4.35;1.23;;;17.70;99.90;;;;;;6241242;28;20300;-59
2022/06/07 11:24:59;;;;;;;7.30;1.30;;;17.70;99.90;;;;;;6243911;28;20049;-60
2022/06/07 11:28:07;;;;;;;5.90;1.45;;;17.70;99.90;;;;;;6244844;28;20049;-60
2022/06/07 11:31:44;;;;;;;6.20;1.35;;;17.60;99.90;;;;;;6242193;28;20509;-60
2022/06/07 11:34:46;;;;;;;5.13;1.35;;;17.50;99.90;;;;;;6221857;28;20057;-59
2022/06/07 11:37:53;;;;;;;7.60;1.40;;;17.50;99.90;;;;;;6238831;28;20046;-60
2022/06/07 11:44:37;;;;;;;5.57;1.33;;;18.00;99.90;;;;;;6244469;28;20049;-60
2022/06/07 11:48:14;;;;;;;4.10;0.98;;;18.30;99.90;;;;;;6239821;28;20088;-59
2022/06/07 11:51:18;;;;;;;4.93;1.52;;;18.60;99.90;;;;;;6213983;28;20057;-59
2022/06/07 11:54:25;;;;;;;4.68;1.10;;;18.60;99.90;;;;;;6229384;28;20057;-60
2022/06/07 11:57:33;;;;;;;3.70;1.15;;;18.60;99.90;;;;;;6227561;28;20068;-59
2022/06/07 12:00:44;;;;;;;2.65;1.02;;;18.60;99.90;;;;;;6245683;28;20076;-59
2022/06/07 12:03:46;;;;;;;2.97;1.10;;;18.50;99.90;;;;;;6243482;28;20050;-60
2022/06/07 12:06:50;;;;;;;3.85;1.00;;;18.40;99.90;;;;;;6231032;28;20052;-59
2022/06/07 12:09:55;;;;;;;3.28;1.08;;;18.40;99.90;;;;;;6237976;28;20139;-59
2022/06/07 12:13:01;;;;;;;8.38;1.42;;;18.20;99.90;;;;;;6236647;28;20057;-60
2022/06/07 12:16:12;;;;;;;6.72;1.40;;;18.10;99.90;;;;;;6246121;28;20494;-59
2022/06/07 12:19:19;;;;;;;5.72;1.35;;;18.10;99.90;;;;;;6246408;28;20053;-60
2022/06/07 12:22:23;;;;;;;4.90;0.90;;;18.10;99.90;;;;;;6244229;28;20089;-60
2022/06/07 12:25:26;;;;;;;5.30;1.20;;;18.00;99.90;;;;;;6243210;28;20155;-59
2022/06/07 12:28:31;;;;;;;4.45;1.25;;;18.10;99.90;;;;;;6239285;28;20049;-59
2022/06/07 12:31:37;;;;;;;4.05;1.08;;;18.10;99.90;;;;;;6236107;28;20184;-59
2022/06/07 12:34:39;;;;;;;2.75;1.00;;;18.20;99.90;;;;;;6249792;28;20051;-60
2022/06/07 12:37:44;;;;;;;4.15;1.13;;;18.40;99.90;;;;;;6241602;28;20045;-59
2022/06/07 12:40:50;;;;;;;3.28;0.82;;;18.60;99.90;;;;;;6230971;28;20041;-60
2022/06/07 12:43:57;;;;;;;2.85;1.00;;;18.90;99.90;;;;;;6226357;28;20057;-60
2022/06/07 12:47:01;;;;;;;5.93;1.10;;;19.20;99.90;;;;;;6240573;28;20049;-59
2022/06/07 12:50:18;;;;;;;2.83;1.20;;;19.40;99.90;;;;;;6244533;28;20529;-59
2022/06/07 12:53:21;;;;;;;4.43;1.35;;;19.40;99.90;;;;;;6232338;28;20072;-60
2022/06/07 12:56:23;;;;;;;4.80;1.20;;;19.30;99.90;;;;;;6235959;28;20052;-60
2022/06/07 12:59:33;;;;;;;3.70;1.05;;;19.20;99.90;;;;;;6226681;28;20061;-60
2022/06/07 13:02:39;;;;;;;5.72;1.52;;;19.20;99.90;;;;;;6241259;28;20050;-59
2022/06/07 13:05:41;;;;;;;4.28;1.23;;;19.20;99.90;;;;;;6249441;28;20478;-59
2022/06/07 13:08:43;;;;;;;8.73;1.88;;;19.10;99.90;;;;;;6245029;28;20052;-60
2022/06/07 13:11:45;;;;;;;4.57;1.30;;;19.00;99.90;;;;;;6245771;28;20061;-58
2022/06/07 13:14:49;;;;;;;5.28;1.20;;;18.90;99.90;;;;;;6239361;28;20045;-60
2022/06/07 13:17:55;;;;;;;;;;;18.90;99.90;;;;;;6247109;28;20402;-60
2022/06/07 13:21:13;;;;;;;4.63;1.27;;;18.80;99.90;;;;;;6235298;28;20349;-59
2022/06/07 13:24:20;;;;;;;2.75;0.90;;;18.90;99.90;;;;;;6245036;28;20056;-59
2022/06/07 13:27:41;;;;;;;4.45;1.45;;;18.90;99.90;;;;;;6238455;28;20107;-60
2022/06/07 13:30:46;;;;;;;4.63;1.40;;;18.90;99.90;;;;;;6234080;28;20143;-60
2022/06/07 13:34:01;;;;;;;4.88;1.73;;;19.00;99.90;;;;;;6231165;28;20414;-60
2022/06/07 13:37:13;;;;;;;4.55;1.20;;;19.10;99.90;;;;;;6236153;28;20521;-60
2022/06/07 13:40:28;;;;;;;4.68;1.20;;;19.40;99.90;;;;;;6248516;28;20049;-60
2022/06/07 13:43:30;;;;;;;3.70;1.20;;;19.50;99.90;;;;;;6271377;28;20516;-60
2022/06/07 13:46:39;;;;;;;4.78;1.08;;;19.60;99.90;;;;;;6272202;28;20044;-60
2022/06/07 13:53:28;;;;;;;4.95;1.23;;;19.70;99.90;;;;;;6155430;28;20046;-60
2022/06/07 13:56:30;;;;;;;2.55;1.15;;;19.90;99.90;;;;;;6218718;28;20128;-60
2022/06/07 13:59:32;;;;;;;3.83;1.15;;;19.90;99.90;;;;;;6223811;28;20076;-60
2022/06/07 14:02:38;;;;;;;4.45;1.00;;;19.90;99.90;;;;;;6234963;28;20061;-60
2022/06/07 14:05:40;;;;;;;3.75;1.08;;;20.00;99.90;;;;;;6233579;28;20072;-60
2022/06/07 14:08:42;;;;;;;4.88;1.13;;;20.00;99.90;;;;;;6246106;28;20045;-60
2022/06/07 14:11:44;;;;;;;3.65;0.80;;;20.00;99.90;;;;;;6234970;28;20059;-60
2022/06/07 14:14:46;;;;;;;3.97;1.27;;;19.90;99.90;;;;;;6250802;28;20045;-60
2022/06/07 14:17:52;;;;;;;3.97;0.77;;;20.00;99.90;;;;;;6243712;28;20056;-60
2022/06/07 14:20:54;;;;;;;2.83;0.80;;;19.90;99.90;;;;;;6242400;28;20056;-60
2022/06/07 14:23:56;;;;;;;2.55;1.02;;;20.00;99.90;;;;;;6236154;28;20068;-60
2022/06/07 14:26:58;;;;;;;3.13;1.00;;;20.00;99.90;;;;;;6239560;28;20132;-60
2022/06/07 14:30:00;;;;;;;7.13;1.50;;;19.80;99.90;;;;;;6241765;28;20045;-60
2022/06/07 14:33:05;;;;;;;3.75;1.13;;;19.70;99.90;;;;;;6240970;28;20045;-60
2022/06/07 14:36:07;;;;;;;3.15;0.80;;;19.60;99.90;;;;;;6241401;28;20053;-60
2022/06/07 14:39:15;;;;;;;7.35;1.38;;;19.50;99.90;;;;;;6243546;28;20045;-60
2022/06/07 14:42:18;;;;;;;4.22;1.10;;;19.30;99.90;;;;;;6228435;28;20064;-60
2022/06/07 14:45:21;;;;;;;4.90;1.00;;;19.20;99.90;;;;;;6234585;28;20132;-59
2022/06/07 14:48:30;;;;;;;4.90;1.52;;;19.10;99.90;;;;;;6233908;28;20042;-60
2022/06/07 14:51:37;;;;;;;5.40;1.30;;;19.10;99.90;;;;;;6234528;28;20055;-59
2022/06/07 14:54:39;;;;;;;4.13;1.15;;;19.10;99.90;;;;;;6237747;28;20474;-60
2022/06/07 14:57:43;;;;;;;3.70;1.27;;;19.20;99.90;;;;;;6233622;28;20056;-59
2022/06/07 15:00:47;;;;;;;6.05;1.55;;;19.20;99.90;;;;;;6232394;28;20131;-60
2022/06/07 15:03:52;;;;;;;3.90;1.20;;;19.30;99.90;;;;;;6240684;28;20056;-60
2022/06/07 15:06:54;;;;;;;3.00;0.93;;;19.30;99.90;;;;;;6237265;28;20057;-60
2022/06/07 15:09:57;;;;;;;4.40;1.00;;;19.40;99.90;;;;;;6234681;28;20396;-60
2022/06/07 15:12:59;;;;;;;3.78;0.98;;;19.50;99.90;;;;;;6238124;28;20057;-60
2022/06/07 15:16:06;;;;;;;3.10;0.80;;;19.30;99.90;;;;;;6237678;28;20057;-59
2022/06/07 15:19:15;;;;;;;4.47;1.23;;;19.20;99.90;;;;;;6227188;28;20057;-60
2022/06/07 15:22:18;;;;;;;2.17;1.00;;;19.10;99.90;;;;;;6236306;28;20382;-60
2022/06/07 15:25:22;;;;;;;3.03;0.97;;;19.00;99.90;;;;;;6244097;28;20048;-59
2022/06/07 15:28:26;;;;;;;5.13;1.35;;;19.00;99.90;;;;;;6228646;28;20065;-60
2022/06/07 15:31:28;;;;;;;6.32;1.40;;;19.00;99.90;;;;;;6227894;28;20049;-60
2022/06/07 15:34:32;;;;;;;4.68;1.20;;;18.90;99.90;;;;;;6230989;28;20189;-60
2022/06/07 15:37:36;;;;;;;3.30;1.27;;;18.80;99.90;;;;;;6234588;28;20526;-60
2022/06/07 15:40:39;;;;;;;2.95;0.95;;;18.80;99.90;;;;;;6232113;28;20127;-60
2022/06/07 15:43:41;;;;;;;5.53;1.50;;;18.70;99.90;;;;;;6244576;28;20056;-60
2022/06/07 15:46:44;;;;;;;4.93;1.30;;;18.70;99.90;;;;;;6242874;28;20057;-60
2022/06/07 15:49:48;;;;;;;1.80;0.90;;;18.80;99.90;;;;;;6244367;28;20046;-60
2022/06/07 15:52:50;;;;;;;9.02;1.90;;;18.90;99.90;;;;;;6237360;28;20076;-58
2022/06/07 15:55:53;;;;;;;4.25;1.30;;;18.90;99.90;;;;;;6216003;28;20191;-58
2022/06/07 15:59:04;;;;;;;4.20;1.42;;;18.80;99.90;;;;;;6239975;28;20390;-58
2022/06/07 16:02:09;;;;;;;5.38;1.10;;;18.80;99.90;;;;;;6247526;28;20414;-58
2022/06/07 16:05:14;;;;;;;8.95;1.75;;;18.70;99.90;;;;;;6244464;28;20511;-58
2022/06/07 16:08:18;;;;;;;6.38;1.38;;;18.60;99.90;;;;;;6238623;28;20041;-58
2022/06/07 16:11:21;;;;;;;4.75;1.55;;;18.60;99.90;;;;;;6240134;28;20072;-59
2022/06/07 16:14:23;;;;;;;4.05;0.95;;;18.50;99.90;;;;;;6240551;28;20053;-61
2022/06/07 16:17:25;;;;;;;7.72;1.63;;;18.50;99.90;;;;;;6639001;23;20437;-59
2022/06/07 16:20:30;;;;;;;7.03;1.75;;;18.50;99.90;;;;;;6234263;28;20049;-58
2022/06/07 16:23:31;;;;;;;5.60;2.17;;;18.30;99.90;;;;;;6231120;28;20501;-60
2022/06/07 16:26:33;;;;;;;5.97;1.27;;;18.10;99.90;;;;;;6233806;28;20057;-60
2022/06/07 16:36:18;;;;;;;5.90;1.70;;;17.90;99.90;;;;;;6252273;28;20115;-59
2022/06/07 16:39:24;;;;;;;5.75;1.80;;;17.90;99.90;;;;;;6248803;28;20077;-59